createdAt,value
2019-05-23T00:00:54.969Z,1.60
2019-05-23T00:04:02.967Z,1.52
2019-05-23T00:06:54.439Z,1.55
2019-05-23T00:09:42.432Z,1.85
2019-05-23T00:12:31.523Z,1.65
2019-05-23T00:15:20.038Z,1.65
2019-05-23T00:17:49.477Z,1.47
2019-05-23T00:20:19.847Z,2.10
2019-05-23T00:23:02.433Z,2.02
2019-05-23T00:25:34.115Z,1.77
2019-05-23T00:28:06.141Z,1.50
2019-05-23T00:30:44.200Z,1.98
2019-05-23T00:33:17.090Z,1.80
2019-05-23T00:35:46.749Z,1.95
2019-05-23T00:38:16.994Z,2.35
2019-05-23T00:40:48.498Z,2.05
2019-05-23T00:43:20.017Z,2.52
2019-05-23T00:45:49.999Z,2.00
2019-05-23T00:48:21.188Z,1.77
2019-05-23T00:50:51.033Z,2.70
2019-05-23T00:53:21.337Z,2.12
2019-05-23T00:55:51.362Z,1.77
2019-05-23T00:58:20.951Z,2.60
2019-05-23T01:00:51.186Z,2.42
2019-05-23T01:03:22.501Z,2.05
2019-05-23T01:05:53.795Z,2.33
2019-05-23T01:08:26.192Z,1.87
2019-05-23T01:10:56.348Z,2.45
2019-05-23T01:13:27.018Z,1.90
2019-05-23T01:15:57.430Z,2.17
2019-05-23T01:18:26.901Z,2.22
2019-05-23T01:21:00.981Z,1.87
2019-05-23T01:23:38.275Z,2.72
2019-05-23T01:26:08.463Z,2.30
2019-05-23T01:28:38.154Z,2.02
2019-05-23T01:31:09.198Z,2.47
2019-05-23T01:33:39.009Z,2.15
2019-05-23T01:36:09.693Z,2.20
2019-05-23T01:38:40.177Z,1.95
2019-05-23T01:41:11.406Z,2.60
2019-05-23T01:43:41.511Z,1.98
2019-05-23T01:46:11.843Z,1.87
2019-05-23T01:48:42.751Z,2.30
2019-05-23T01:51:14.117Z,2.40
2019-05-23T01:53:43.570Z,2.45
2019-05-23T01:56:13.602Z,2.58
2019-05-23T01:58:43.286Z,2.05
2019-05-23T02:01:13.967Z,2.42
2019-05-23T02:03:45.042Z,2.70
2019-05-23T02:06:15.938Z,2.52
2019-05-23T02:08:46.358Z,1.85
2019-05-23T02:11:17.656Z,2.50
2019-05-23T02:13:47.543Z,2.22
2019-05-23T02:16:18.624Z,2.42
2019-05-23T02:18:50.775Z,2.40
2019-05-23T02:21:21.319Z,2.20
2019-05-23T02:23:50.784Z,2.55
2019-05-23T02:26:22.250Z,3.02
2019-05-23T02:28:53.263Z,2.17
2019-05-23T02:31:23.412Z,2.00
2019-05-23T02:33:53.894Z,2.92
2019-05-23T02:36:23.352Z,2.45
2019-05-23T02:38:54.445Z,2.52
2019-05-23T02:41:26.103Z,2.40
2019-05-23T02:43:58.310Z,2.15
2019-05-23T02:46:46.774Z,2.40
2019-05-23T02:49:18.536Z,2.75
2019-05-23T02:51:48.838Z,2.25
2019-05-23T02:54:20.040Z,2.80
2019-05-23T02:56:49.849Z,2.50
2019-05-23T02:59:41.939Z,2.45
2019-05-23T03:02:39.504Z,2.45
2019-05-23T03:05:15.272Z,2.58
2019-05-23T03:07:45.287Z,3.02
2019-05-23T03:10:16.638Z,3.25
2019-05-23T03:12:49.629Z,2.67
2019-05-23T03:15:19.333Z,2.83
2019-05-23T03:17:51.867Z,2.33
2019-05-23T03:20:21.757Z,2.92
2019-05-23T03:23:02.105Z,2.12
2019-05-23T03:25:39.455Z,2.50
2019-05-23T03:28:12.635Z,2.30
2019-05-23T03:30:44.932Z,2.75
2019-05-23T03:33:15.130Z,2.33
2019-05-23T03:35:46.409Z,2.45
2019-05-23T03:38:16.459Z,2.70
2019-05-23T03:40:47.444Z,3.70
2019-05-23T03:43:17.470Z,2.92
2019-05-23T03:45:58.174Z,3.17
2019-05-23T03:48:31.873Z,3.20
2019-05-23T03:51:02.901Z,2.22
2019-05-23T03:53:32.423Z,3.17
2019-05-23T03:56:01.874Z,2.00
2019-05-23T03:58:31.616Z,2.30
2019-05-23T04:01:04.552Z,2.58
2019-05-23T04:03:39.688Z,2.50
2019-05-23T04:06:06.894Z,2.98
2019-05-23T04:08:36.844Z,2.62
2019-05-23T04:11:06.850Z,3.20
2019-05-23T04:13:36.565Z,2.40
2019-05-23T04:16:06.766Z,2.30
2019-05-23T04:18:37.466Z,2.50
2019-05-23T04:21:10.504Z,3.10
2019-05-23T04:23:40.201Z,2.40
2019-05-23T04:26:09.696Z,2.80
2019-05-23T04:28:39.208Z,2.95
2019-05-23T04:31:12.899Z,3.08
2019-05-23T04:33:41.480Z,3.08
2019-05-23T04:36:11.159Z,2.87
2019-05-23T04:38:40.812Z,2.40
2019-05-23T04:41:10.702Z,2.40
2019-05-23T04:43:40.142Z,3.45
2019-05-23T04:46:09.790Z,3.12
2019-05-23T04:48:39.325Z,3.27
2019-05-23T04:51:09.262Z,2.67
2019-05-23T04:53:38.728Z,3.20
2019-05-23T04:56:08.595Z,3.02
2019-05-23T04:58:38.384Z,3.50
2019-05-23T05:01:09.153Z,3.22
2019-05-23T05:03:39.552Z,2.90
2019-05-23T05:06:09.101Z,2.47
2019-05-23T05:08:38.811Z,3.20
2019-05-23T05:11:08.345Z,4.22
2019-05-23T05:13:37.798Z,2.98
2019-05-23T05:16:07.247Z,2.58
2019-05-23T05:18:37.420Z,2.65
2019-05-23T05:21:06.843Z,2.50
2019-05-23T05:23:36.302Z,2.80
2019-05-23T05:26:08.836Z,2.80
2019-05-23T05:28:38.455Z,2.15
2019-05-23T05:31:08.185Z,2.70
2019-05-23T05:33:37.658Z,3.00
2019-05-23T05:36:07.571Z,2.20
2019-05-23T05:38:37.175Z,2.98
2019-05-23T05:41:08.353Z,2.58
2019-05-23T05:43:39.498Z,2.55
2019-05-23T05:46:09.479Z,2.33
2019-05-23T05:48:39.065Z,2.52
2019-05-23T05:51:08.683Z,3.00
2019-05-23T05:53:39.370Z,2.37
2019-05-23T05:56:08.844Z,3.45
2019-05-23T05:58:38.259Z,3.52
2019-05-23T06:01:09.062Z,2.50
2019-05-23T06:03:39.212Z,2.85
2019-05-23T06:06:10.551Z,3.17
2019-05-23T06:08:44.706Z,2.77
2019-05-23T06:11:15.005Z,2.60
2019-05-23T06:13:44.981Z,2.80
2019-05-23T06:16:14.522Z,2.72
2019-05-23T06:18:44.236Z,3.10
2019-05-23T06:21:15.516Z,3.55
2019-05-23T06:23:45.757Z,2.77
2019-05-23T06:26:15.761Z,3.70
2019-05-23T06:28:45.965Z,3.60
2019-05-23T06:31:18.391Z,2.47
2019-05-23T06:33:47.894Z,3.72
2019-05-23T06:36:17.666Z,3.70
2019-05-23T06:38:47.479Z,4.05
2019-05-23T06:41:18.458Z,3.10
2019-05-23T06:43:48.183Z,4.70
2019-05-23T06:46:18.060Z,4.03
2019-05-23T06:48:47.522Z,3.72
2019-05-23T06:51:17.250Z,4.17
2019-05-23T06:53:46.823Z,4.62
2019-05-23T06:56:16.374Z,4.05
2019-05-23T06:58:45.871Z,3.52
2019-05-23T07:01:34.838Z,4.53
2019-05-23T07:04:06.326Z,3.87
2019-05-23T07:06:35.868Z,4.28
2019-05-23T07:09:24.811Z,4.00
2019-05-23T07:11:57.339Z,3.70
2019-05-23T07:14:27.642Z,4.47
2019-05-23T07:16:57.083Z,3.67
2019-05-23T07:19:26.699Z,3.60
2019-05-23T07:21:56.220Z,3.37
2019-05-23T07:24:26.051Z,4.33
2019-05-23T07:26:55.579Z,4.55
2019-05-23T07:29:25.261Z,3.47
2019-05-23T07:31:54.911Z,4.37
2019-05-23T07:34:25.387Z,4.42
2019-05-23T07:36:55.552Z,4.30
2019-05-23T07:39:25.058Z,4.08
2019-05-23T07:41:54.608Z,4.25
2019-05-23T07:44:25.379Z,3.80
2019-05-23T07:46:54.972Z,4.55
2019-05-23T07:49:24.531Z,3.47
2019-05-23T07:52:06.325Z,4.20
2019-05-23T07:54:37.484Z,4.12
2019-05-23T07:57:09.824Z,3.75
2019-05-23T07:59:39.306Z,4.05
2019-05-23T08:02:15.832Z,4.03
2019-05-23T08:04:45.920Z,3.87
2019-05-23T08:07:17.099Z,4.17
2019-05-23T08:09:48.943Z,4.03
2019-05-23T08:12:18.788Z,4.72
2019-05-23T08:14:48.234Z,4.33
2019-05-23T08:17:17.900Z,5.00
2019-05-23T08:19:50.046Z,4.20
2019-05-23T08:22:18.451Z,4.55
2019-05-23T08:24:51.050Z,4.65
2019-05-23T08:27:19.209Z,4.55
2019-05-23T08:29:48.706Z,4.67
2019-05-23T08:32:18.818Z,4.28
2019-05-23T08:34:48.538Z,4.80
2019-05-23T08:37:18.487Z,4.30
2019-05-23T08:39:48.780Z,4.47
2019-05-23T08:42:18.756Z,4.60
2019-05-23T08:44:48.378Z,4.25
2019-05-23T08:47:18.888Z,3.45
2019-05-23T08:49:48.423Z,4.30
2019-05-23T08:52:17.880Z,4.12
2019-05-23T08:54:48.867Z,3.52
2019-05-23T08:57:18.593Z,3.22
2019-05-23T08:59:49.364Z,3.00
2019-05-23T09:02:21.425Z,3.77
2019-05-23T09:05:04.280Z,2.80
2019-05-23T09:07:22.886Z,3.08
2019-05-23T09:10:06.985Z,2.72
2019-05-23T09:12:49.822Z,2.17
2019-05-23T09:15:20.939Z,3.17
2019-05-23T09:17:53.593Z,2.42
2019-05-23T09:20:22.386Z,3.40
2019-05-23T09:22:51.958Z,2.25
2019-05-23T09:25:21.534Z,2.15
2019-05-23T09:27:51.543Z,1.75
2019-05-23T09:30:22.418Z,2.50
2019-05-23T09:32:51.930Z,2.20
2019-05-23T09:35:22.397Z,2.33
2019-05-23T09:37:52.110Z,2.05
2019-05-23T09:40:21.903Z,1.98
2019-05-23T09:42:51.329Z,1.55
2019-05-23T09:45:21.359Z,1.87
2019-05-23T09:47:51.723Z,1.42
2019-05-23T09:50:23.005Z,1.52
2019-05-23T09:52:52.890Z,1.47
2019-05-23T09:55:41.900Z,1.30
2019-05-23T09:58:11.409Z,1.17
2019-05-23T10:00:41.649Z,1.50
2019-05-23T10:03:11.455Z,0.88
2019-05-23T10:05:47.893Z,1.00
2019-05-23T10:08:17.634Z,1.40
2019-05-23T10:10:47.085Z,1.25
2019-05-23T10:13:16.589Z,1.35
2019-05-23T10:15:47.953Z,1.30
2019-05-23T10:18:23.235Z,2.15
2019-05-23T10:20:52.842Z,1.30
2019-05-23T10:23:22.343Z,1.10
2019-05-23T10:25:51.791Z,1.40
2019-05-23T10:28:21.446Z,1.10
2019-05-23T10:30:50.889Z,1.15
2019-05-23T10:33:20.338Z,1.10
2019-05-23T10:35:59.794Z,1.52
2019-05-23T10:38:21.022Z,1.20
2019-05-23T10:40:50.732Z,1.77
2019-05-23T10:43:20.277Z,1.32
2019-05-23T10:48:35.899Z,1.90
2019-05-23T10:51:05.405Z,1.70
2019-05-23T10:53:34.909Z,1.42
2019-05-23T10:56:20.727Z,2.00
2019-05-23T10:58:48.368Z,1.50
2019-05-23T11:01:18.794Z,2.33
2019-05-23T11:03:49.443Z,2.00
2019-05-23T11:06:20.112Z,1.50
2019-05-23T11:08:51.088Z,2.27
2019-05-23T11:11:20.565Z,2.00
2019-05-23T11:13:50.167Z,1.65
2019-05-23T11:16:19.999Z,2.45
2019-05-23T11:18:50.115Z,2.37
2019-05-23T11:21:20.114Z,2.83
2019-05-23T11:23:51.198Z,2.20
2019-05-23T11:26:20.647Z,2.17
2019-05-23T11:28:50.238Z,2.37
2019-05-23T11:31:19.940Z,2.87
2019-05-23T11:33:49.535Z,2.70
2019-05-23T11:36:33.930Z,2.87
2019-05-23T11:38:50.294Z,2.52
2019-05-23T11:41:20.759Z,2.27
2019-05-23T11:43:50.338Z,2.42
2019-05-23T11:46:22.053Z,2.60
2019-05-23T11:48:52.598Z,2.47
2019-05-23T11:51:25.251Z,2.55
2019-05-23T11:54:06.808Z,2.47
2019-05-23T11:56:24.739Z,3.02
2019-05-23T11:58:54.196Z,2.87
2019-05-23T12:01:26.135Z,3.22
2019-05-23T12:04:12.675Z,2.75
2019-05-23T12:06:54.736Z,3.02
2019-05-23T12:09:15.258Z,3.85
2019-05-23T12:11:44.871Z,2.72
2019-05-23T12:14:14.468Z,4.03
2019-05-23T12:16:43.916Z,2.92
2019-05-23T12:19:14.104Z,3.37
2019-05-23T12:21:44.520Z,2.75
2019-05-23T12:24:14.410Z,4.08
2019-05-23T12:26:43.883Z,3.75
2019-05-23T12:29:13.500Z,2.95
2019-05-23T12:31:43.155Z,2.80
2019-05-23T12:34:12.760Z,2.35
2019-05-23T12:36:42.260Z,2.40
2019-05-23T12:39:12.151Z,2.30
2019-05-23T12:41:43.637Z,1.90
2019-05-23T12:44:17.374Z,1.82
2019-05-23T12:46:45.369Z,2.33
2019-05-23T12:49:25.709Z,1.80
2019-05-23T12:51:57.103Z,1.90
2019-05-23T12:54:26.804Z,2.20
2019-05-23T12:56:57.026Z,1.65
2019-05-23T12:59:26.849Z,1.70
2019-05-23T13:01:58.534Z,1.87
2019-05-23T13:04:28.098Z,1.75
2019-05-23T13:06:57.846Z,1.32
2019-05-23T13:09:27.287Z,2.85
2019-05-23T13:11:56.814Z,2.15
2019-05-23T13:14:26.648Z,1.70
2019-05-23T13:17:00.379Z,1.57
2019-05-23T13:19:27.365Z,2.40
2019-05-23T13:22:08.163Z,2.42
2019-05-23T13:24:53.553Z,2.45
2019-05-23T13:27:24.117Z,2.05
2019-05-23T13:29:53.659Z,1.80
2019-05-23T13:32:24.740Z,1.92
2019-05-23T13:34:54.431Z,1.72
2019-05-23T13:37:25.020Z,2.27
2019-05-23T13:39:54.545Z,2.47
2019-05-23T13:42:25.533Z,2.20
2019-05-23T13:44:55.045Z,2.20
2019-05-23T13:47:24.796Z,2.40
2019-05-23T13:49:54.315Z,2.37
2019-05-23T13:52:26.651Z,2.65
2019-05-23T13:54:57.274Z,2.22
2019-05-23T13:57:26.979Z,3.47
2019-05-23T13:59:56.512Z,2.37
2019-05-23T14:02:38.022Z,2.58
2019-05-23T14:05:08.810Z,3.62
2019-05-23T14:07:39.086Z,3.33
2019-05-23T14:10:09.955Z,3.20
2019-05-23T14:12:40.113Z,3.30
2019-05-23T14:15:23.851Z,3.67
2019-05-23T14:17:53.467Z,2.80
2019-05-23T14:20:23.229Z,2.95
2019-05-23T14:22:54.334Z,2.62
2019-05-23T14:25:24.465Z,3.50
2019-05-23T14:28:10.177Z,2.95
2019-05-23T14:30:41.934Z,2.75
2019-05-23T14:33:22.247Z,3.35
2019-05-23T14:36:10.018Z,2.85
2019-05-23T14:38:39.623Z,2.70
2019-05-23T14:41:09.583Z,2.10
2019-05-23T14:43:39.092Z,2.52
2019-05-23T14:46:10.191Z,2.17
2019-05-23T14:48:50.544Z,2.70
2019-05-23T14:51:27.726Z,3.20
2019-05-23T14:54:17.539Z,2.33
2019-05-23T14:56:47.635Z,2.50
2019-05-23T14:59:17.574Z,2.20
2019-05-23T15:01:47.379Z,2.20
2019-05-23T15:04:17.169Z,2.12
2019-05-23T15:06:47.596Z,2.25
2019-05-23T15:09:20.652Z,1.92
2019-05-23T15:11:48.357Z,2.20
2019-05-23T15:14:17.851Z,2.62
2019-05-23T15:16:47.334Z,2.02
2019-05-23T15:19:36.461Z,1.42
2019-05-23T15:21:47.974Z,2.65
2019-05-23T15:24:17.418Z,3.08
2019-05-23T15:26:46.916Z,2.58
2019-05-23T15:29:16.457Z,2.58
2019-05-23T15:32:00.955Z,2.20
2019-05-23T15:34:23.419Z,2.40
2019-05-23T15:36:48.196Z,2.12
2019-05-23T15:39:20.409Z,2.22
2019-05-23T15:41:50.069Z,2.35
2019-05-23T15:44:26.905Z,2.75
2019-05-23T15:46:50.948Z,2.33
2019-05-23T15:49:20.496Z,3.17
2019-05-23T15:52:00.248Z,2.72
2019-05-23T15:54:43.544Z,2.98
2019-05-23T15:57:17.527Z,3.02
2019-05-23T15:59:48.975Z,2.33
2019-05-23T16:02:20.240Z,2.33
2019-05-23T16:04:50.533Z,2.55
2019-05-23T16:07:22.024Z,3.02
2019-05-23T16:09:52.936Z,3.20
2019-05-23T16:12:22.520Z,3.22
2019-05-23T16:14:52.444Z,2.70
2019-05-23T16:17:22.270Z,2.98
2019-05-23T16:19:52.513Z,2.75
2019-05-23T16:22:23.216Z,2.90
2019-05-23T16:24:52.641Z,2.92
2019-05-23T16:27:22.268Z,4.67
2019-05-23T16:29:52.022Z,2.98
2019-05-23T16:32:25.253Z,2.47
2019-05-23T16:34:54.702Z,2.92
2019-05-23T16:37:24.809Z,2.67
2019-05-23T16:39:54.799Z,2.85
2019-05-23T16:42:25.815Z,2.95
2019-05-23T16:44:55.935Z,3.12
2019-05-23T16:47:25.391Z,2.35
2019-05-23T16:49:55.831Z,2.72
2019-05-23T16:52:26.810Z,3.27
2019-05-23T16:54:57.892Z,3.15
2019-05-23T16:57:29.063Z,2.98
2019-05-23T17:00:28.487Z,3.00
2019-05-23T17:03:05.878Z,2.67
2019-05-23T17:05:42.784Z,2.67
2019-05-23T17:08:19.826Z,2.92
2019-05-23T17:10:51.070Z,2.80
2019-05-23T17:13:22.224Z,3.15
2019-05-23T17:16:00.365Z,2.70
2019-05-23T17:18:47.674Z,3.20
2019-05-23T17:21:28.293Z,2.70
2019-05-23T17:24:02.598Z,3.30
2019-05-23T17:26:48.832Z,3.25
2019-05-23T17:29:29.460Z,3.00
2019-05-23T17:31:59.853Z,3.15
2019-05-23T17:34:29.386Z,2.90
2019-05-23T17:36:58.991Z,3.17
2019-05-23T17:39:29.598Z,3.42
2019-05-23T17:41:59.117Z,2.52
2019-05-23T17:44:28.783Z,3.02
2019-05-23T17:46:58.328Z,2.72
2019-05-23T17:49:27.863Z,2.75
2019-05-23T17:51:57.330Z,3.40
2019-05-23T17:54:31.034Z,3.67
2019-05-23T17:57:00.508Z,3.85
2019-05-23T17:59:29.992Z,4.10
2019-05-23T18:02:00.102Z,3.67
2019-05-23T18:04:29.639Z,3.42
2019-05-23T18:07:05.807Z,3.35
2019-05-23T18:09:35.918Z,3.92
2019-05-23T18:12:06.908Z,3.42
2019-05-23T18:14:37.491Z,3.25
2019-05-23T18:17:07.873Z,4.12
2019-05-23T18:19:38.664Z,3.20
2019-05-23T18:22:08.537Z,3.52
2019-05-23T18:24:38.777Z,3.55
2019-05-23T18:27:21.094Z,2.75
2019-05-23T18:29:50.641Z,4.05
2019-05-23T18:32:21.674Z,3.17
2019-05-23T18:34:51.216Z,2.70
2019-05-23T18:37:21.123Z,3.27
2019-05-23T18:39:50.778Z,3.25
2019-05-23T18:42:20.722Z,3.47
2019-05-23T18:44:50.508Z,3.80
2019-05-23T18:50:16.637Z,3.92
2019-05-23T18:52:46.112Z,3.45
2019-05-23T18:55:17.902Z,4.05
2019-05-23T18:57:47.541Z,4.25
2019-05-23T19:00:17.715Z,3.33
2019-05-23T19:02:47.302Z,3.80
2019-05-23T19:05:17.538Z,3.65
2019-05-23T19:07:47.604Z,3.75
2019-05-23T19:10:19.259Z,3.70
2019-05-23T19:12:48.765Z,4.30
2019-05-23T19:15:19.048Z,3.08
2019-05-23T19:17:48.494Z,3.27
2019-05-23T19:20:20.702Z,3.35
2019-05-23T19:22:54.172Z,3.62
2019-05-23T19:25:24.173Z,3.77
2019-05-23T19:27:55.165Z,3.02
2019-05-23T19:30:25.123Z,3.90
2019-05-23T19:32:58.831Z,3.92
2019-05-23T19:37:58.785Z,2.58
2019-05-23T19:40:30.247Z,3.02
2019-05-23T19:43:00.958Z,3.75
2019-05-23T19:45:32.230Z,3.25
2019-05-23T19:48:01.963Z,2.77
2019-05-23T19:50:31.848Z,3.00
2019-05-23T19:53:01.453Z,2.77
2019-05-23T19:55:32.824Z,3.20
2019-05-23T19:58:02.341Z,2.87
2019-05-23T20:00:36.035Z,6.05
2019-05-23T20:05:43.304Z,3.15
2019-05-23T20:08:14.049Z,3.20
2019-05-23T20:10:43.732Z,3.70
2019-05-23T20:13:13.325Z,3.33
2019-05-23T20:15:45.578Z,3.10
2019-05-23T20:18:16.047Z,3.35
2019-05-23T20:20:47.307Z,3.45
2019-05-23T20:23:17.676Z,3.67
2019-05-23T20:25:47.772Z,3.72
2019-05-23T20:28:19.127Z,3.37
2019-05-23T20:30:51.277Z,3.77
2019-05-23T20:33:21.268Z,3.72
2019-05-23T20:35:51.086Z,4.03
2019-05-23T20:38:24.674Z,4.08
2019-05-23T20:40:58.174Z,4.05
2019-05-23T20:43:28.648Z,3.30
2019-05-23T20:45:58.092Z,4.00
2019-05-23T20:48:27.883Z,4.90
2019-05-23T20:50:57.724Z,3.50
2019-05-23T20:53:29.403Z,4.05
2019-05-23T20:56:00.000Z,3.90
2019-05-23T20:58:29.549Z,3.70
2019-05-23T21:01:05.267Z,4.05
2019-05-23T21:03:36.011Z,3.80
2019-05-23T21:06:07.568Z,4.40
2019-05-23T21:08:37.707Z,4.17
2019-05-23T21:11:07.469Z,3.58
2019-05-23T21:13:37.027Z,3.60
2019-05-23T21:16:06.647Z,4.28
2019-05-23T21:18:36.229Z,3.37
2019-05-23T21:21:12.042Z,3.00
2019-05-23T21:23:41.516Z,3.08
2019-05-23T21:26:11.035Z,3.05
2019-05-23T21:28:40.877Z,3.00
2019-05-23T21:31:12.037Z,2.95
2019-05-23T21:33:41.550Z,3.30
2019-05-23T21:36:11.087Z,4.05
2019-05-23T21:38:40.690Z,3.02
2019-05-23T21:41:10.195Z,3.65
2019-05-23T21:43:39.703Z,3.58
2019-05-23T21:46:09.321Z,3.00
2019-05-23T21:48:38.774Z,3.17
2019-05-23T21:51:08.246Z,3.25
2019-05-23T21:53:37.771Z,2.83
2019-05-23T21:56:07.464Z,3.30
2019-05-23T21:58:37.991Z,3.37
2019-05-23T22:01:10.146Z,3.15
2019-05-23T22:03:59.324Z,2.95
2019-05-23T22:06:30.553Z,3.60
2019-05-23T22:09:00.945Z,2.55
2019-05-23T22:11:32.086Z,2.85
2019-05-23T22:14:01.533Z,2.67
2019-05-23T22:16:31.108Z,2.58
2019-05-23T22:19:00.668Z,2.47
2019-05-23T22:21:30.114Z,2.58
2019-05-23T22:23:59.662Z,2.12
2019-05-23T22:26:29.196Z,2.95
2019-05-23T22:28:58.629Z,2.95
2019-05-23T22:31:28.446Z,3.47
2019-05-23T22:34:02.252Z,2.83
2019-05-23T22:39:00.463Z,3.20
2019-05-23T22:41:30.207Z,2.75
2019-05-23T22:43:59.656Z,2.67
2019-05-23T22:46:30.162Z,3.37
2019-05-23T22:48:59.639Z,2.75
2019-05-23T22:51:29.083Z,3.00
2019-05-23T22:53:58.605Z,2.95
2019-05-23T22:56:28.085Z,3.20
2019-05-23T22:58:57.526Z,3.00
2019-05-23T23:01:28.786Z,3.15
2019-05-23T23:03:58.405Z,3.35
2019-05-23T23:06:29.040Z,3.27
2019-05-23T23:08:58.551Z,3.15
2019-05-23T23:11:28.081Z,3.17
2019-05-23T23:13:57.582Z,3.27
2019-05-23T23:16:27.142Z,3.40
2019-05-23T23:18:56.692Z,3.65
2019-05-23T23:21:26.115Z,3.02
2019-05-23T23:23:55.576Z,3.55
2019-05-23T23:26:25.070Z,3.62
2019-05-23T23:28:55.691Z,3.22
2019-05-23T23:31:25.332Z,3.98
2019-05-23T23:33:54.846Z,3.40
2019-05-23T23:36:24.315Z,3.30
2019-05-23T23:38:53.754Z,3.72
2019-05-23T23:41:23.258Z,3.83
2019-05-23T23:43:59.193Z,3.20
2019-05-23T23:46:41.890Z,3.47
2019-05-23T23:49:29.247Z,4.50
2019-05-23T23:52:16.761Z,4.87
2019-05-23T23:55:04.438Z,3.95
2019-05-23T23:57:51.910Z,4.10
